Hillsboro, Kansas
Current Conditions -  °F | °C
As of 2:55 AM on Saturday 22 Nov 2014 (Local Time) from KEWK Reporting Station
Overcast Overcast  
Wind Chill: 39°   Ceiling: 1400
Heat Index: 43°   Visibility: 5mi
Dew Point: 37°   Wind: 7mph
Humidity: 81%   Direction: 200°SSW
Pressure: 30.03"   Gusts: NA
Location:  38.35°N, 97.2°W
Report Text: KEWK 220855Z AUTO 20006KT 5SM OVC014 06/03 A3003 RMK AO1 57007
Loading
Personal Weather Stations






























Interactive Weather Map New forecast layout! Learn more

10-Day Weather Forecast

Advertisements
Track Severe Weather on mobile